sensor_id;sensor_type;location;lat;lon;timestamp;P1;durP1;ratioP1;P2;durP2;ratioP2
23543;SDS011;11950;51.230;4.012;2023-07-31T00:02:01;9.82;;;4.22;;
23543;SDS011;11950;51.230;4.012;2023-07-31T00:04:28;16.48;;;4.57;;
23543;SDS011;11950;51.230;4.012;2023-07-31T00:06:54;14.88;;;4.80;;
23543;SDS011;11950;51.230;4.012;2023-07-31T00:09:20;12.77;;;4.05;;
23543;SDS011;11950;51.230;4.012;2023-07-31T00:11:46;16.88;;;4.68;;
23543;SDS011;11950;51.230;4.012;2023-07-31T00:14:13;15.57;;;4.70;;
23543;SDS011;11950;51.230;4.012;2023-07-31T00:16:39;21.80;;;5.38;;
23543;SDS011;11950;51.230;4.012;2023-07-31T00:19:05;15.63;;;4.65;;
23543;SDS011;11950;51.230;4.012;2023-07-31T00:21:32;11.48;;;3.88;;
23543;SDS011;11950;51.230;4.012;2023-07-31T00:23:58;16.42;;;4.60;;
23543;SDS011;11950;51.230;4.012;2023-07-31T00:26:24;17.80;;;4.80;;
23543;SDS011;11950;51.230;4.012;2023-07-31T00:28:50;15.93;;;4.90;;
23543;SDS011;11950;51.230;4.012;2023-07-31T00:31:16;17.50;;;4.72;;
23543;SDS011;11950;51.230;4.012;2023-07-31T00:33:43;16.50;;;5.25;;
23543;SDS011;11950;51.230;4.012;2023-07-31T00:36:09;12.52;;;3.97;;
23543;SDS011;11950;51.230;4.012;2023-07-31T00:38:35;19.02;;;4.68;;
23543;SDS011;11950;51.230;4.012;2023-07-31T00:41:01;15.30;;;4.68;;
23543;SDS011;11950;51.230;4.012;2023-07-31T00:43:28;13.75;;;4.55;;
23543;SDS011;11950;51.230;4.012;2023-07-31T00:45:54;19.38;;;4.90;;
23543;SDS011;11950;51.230;4.012;2023-07-31T00:48:21;17.77;;;5.53;;
23543;SDS011;11950;51.230;4.012;2023-07-31T00:50:47;13.95;;;5.10;;
23543;SDS011;11950;51.230;4.012;2023-07-31T00:53:14;13.40;;;4.68;;
23543;SDS011;11950;51.230;4.012;2023-07-31T00:55:41;14.93;;;4.72;;
23543;SDS011;11950;51.230;4.012;2023-07-31T00:58:08;17.40;;;5.38;;
23543;SDS011;11950;51.230;4.012;2023-07-31T01:00:34;14.45;;;5.32;;
23543;SDS011;11950;51.230;4.012;2023-07-31T01:03:00;13.13;;;5.07;;
23543;SDS011;11950;51.230;4.012;2023-07-31T01:08:11;12.98;;;5.40;;
23543;SDS011;11950;51.230;4.012;2023-07-31T01:10:46;17.40;;;4.72;;
23543;SDS011;11950;51.230;4.012;2023-07-31T01:13:20;13.27;;;4.72;;
23543;SDS011;11950;51.230;4.012;2023-07-31T01:15:47;12.52;;;5.78;;
23543;SDS011;11950;51.230;4.012;2023-07-31T01:18:13;21.00;;;4.55;;
23543;SDS011;11950;51.230;4.012;2023-07-31T01:20:40;16.73;;;5.50;;
23543;SDS011;11950;51.230;4.012;2023-07-31T01:23:21;17.58;;;5.35;;
23543;SDS011;11950;51.230;4.012;2023-07-31T01:26:16;12.50;;;4.80;;
23543;SDS011;11950;51.230;4.012;2023-07-31T01:28:50;13.82;;;4.28;;
23543;SDS011;11950;51.230;4.012;2023-07-31T01:31:25;17.40;;;5.10;;
23543;SDS011;11950;51.230;4.012;2023-07-31T01:33:54;16.20;;;5.05;;
23543;SDS011;11950;51.230;4.012;2023-07-31T01:36:25;13.80;;;4.70;;
23543;SDS011;11950;51.230;4.012;2023-07-31T01:38:51;14.65;;;4.45;;
23543;SDS011;11950;51.230;4.012;2023-07-31T01:41:18;19.75;;;4.90;;
23543;SDS011;11950;51.230;4.012;2023-07-31T01:43:45;18.92;;;4.57;;
23543;SDS011;11950;51.230;4.012;2023-07-31T01:46:12;13.68;;;4.93;;
23543;SDS011;11950;51.230;4.012;2023-07-31T01:48:38;11.02;;;3.92;;
23543;SDS011;11950;51.230;4.012;2023-07-31T01:51:05;13.40;;;4.55;;
23543;SDS011;11950;51.230;4.012;2023-07-31T01:53:31;15.80;;;4.30;;
23543;SDS011;11950;51.230;4.012;2023-07-31T01:55:58;11.52;;;4.65;;
23543;SDS011;11950;51.230;4.012;2023-07-31T01:58:24;14.50;;;4.68;;
23543;SDS011;11950;51.230;4.012;2023-07-31T02:00:50;13.52;;;4.18;;
23543;SDS011;11950;51.230;4.012;2023-07-31T02:03:17;13.02;;;4.72;;
23543;SDS011;11950;51.230;4.012;2023-07-31T02:05:44;12.93;;;4.40;;
23543;SDS011;11950;51.230;4.012;2023-07-31T02:08:14;11.18;;;4.20;;
23543;SDS011;11950;51.230;4.012;2023-07-31T02:10:41;11.57;;;3.95;;
23543;SDS011;11950;51.230;4.012;2023-07-31T02:13:07;15.50;;;4.68;;
23543;SDS011;11950;51.230;4.012;2023-07-31T02:15:34;12.48;;;4.68;;
23543;SDS011;11950;51.230;4.012;2023-07-31T02:18:00;12.15;;;3.90;;
23543;SDS011;11950;51.230;4.012;2023-07-31T02:20:26;13.30;;;4.07;;
23543;SDS011;11950;51.230;4.012;2023-07-31T02:22:53;14.98;;;4.03;;
23543;SDS011;11950;51.230;4.012;2023-07-31T02:25:19;14.00;;;5.85;;
23543;SDS011;11950;51.230;4.012;2023-07-31T02:27:45;20.10;;;4.53;;
23543;SDS011;11950;51.230;4.012;2023-07-31T02:30:11;16.13;;;3.58;;
23543;SDS011;11950;51.230;4.012;2023-07-31T02:32:38;13.65;;;3.75;;
23543;SDS011;11950;51.230;4.012;2023-07-31T02:35:04;12.40;;;3.95;;
23543;SDS011;11950;51.230;4.012;2023-07-31T02:37:31;14.25;;;3.63;;
23543;SDS011;11950;51.230;4.012;2023-07-31T02:39:57;11.38;;;3.75;;
23543;SDS011;11950;51.230;4.012;2023-07-31T02:42:23;13.18;;;4.32;;
23543;SDS011;11950;51.230;4.012;2023-07-31T02:44:49;13.57;;;3.85;;
23543;SDS011;11950;51.230;4.012;2023-07-31T02:47:21;10.50;;;3.60;;
23543;SDS011;11950;51.230;4.012;2023-07-31T02:49:48;13.15;;;4.00;;
23543;SDS011;11950;51.230;4.012;2023-07-31T02:52:16;15.07;;;3.90;;
23543;SDS011;11950;51.230;4.012;2023-07-31T02:54:43;13.48;;;3.50;;
23543;SDS011;11950;51.230;4.012;2023-07-31T02:57:09;13.38;;;3.83;;
23543;SDS011;11950;51.230;4.012;2023-07-31T02:59:35;12.25;;;3.78;;
23543;SDS011;11950;51.230;4.012;2023-07-31T03:02:01;11.50;;;3.30;;
23543;SDS011;11950;51.230;4.012;2023-07-31T03:04:28;9.30;;;3.10;;
23543;SDS011;11950;51.230;4.012;2023-07-31T03:06:55;9.07;;;3.10;;
23543;SDS011;11950;51.230;4.012;2023-07-31T03:09:21;9.15;;;3.13;;
23543;SDS011;11950;51.230;4.012;2023-07-31T03:11:47;10.77;;;3.63;;
23543;SDS011;11950;51.230;4.012;2023-07-31T03:14:13;16.52;;;3.78;;
23543;SDS011;11950;51.230;4.012;2023-07-31T03:16:40;11.88;;;3.65;;
23543;SDS011;11950;51.230;4.012;2023-07-31T03:19:06;10.50;;;3.42;;
23543;SDS011;11950;51.230;4.012;2023-07-31T03:21:32;10.55;;;3.08;;
23543;SDS011;11950;51.230;4.012;2023-07-31T03:23:58;11.38;;;3.05;;
23543;SDS011;11950;51.230;4.012;2023-07-31T03:26:25;13.70;;;3.60;;
23543;SDS011;11950;51.230;4.012;2023-07-31T03:28:51;14.80;;;3.55;;
23543;SDS011;11950;51.230;4.012;2023-07-31T03:31:17;10.45;;;3.47;;
23543;SDS011;11950;51.230;4.012;2023-07-31T03:33:43;11.00;;;3.45;;
23543;SDS011;11950;51.230;4.012;2023-07-31T03:36:09;17.00;;;3.63;;
23543;SDS011;11950;51.230;4.012;2023-07-31T03:38:36;9.27;;;3.53;;
23543;SDS011;11950;51.230;4.012;2023-07-31T03:41:02;12.10;;;3.38;;
23543;SDS011;11950;51.230;4.012;2023-07-31T03:43:28;12.63;;;3.63;;
23543;SDS011;11950;51.230;4.012;2023-07-31T03:45:54;12.82;;;3.55;;
23543;SDS011;11950;51.230;4.012;2023-07-31T03:48:21;12.00;;;3.28;;
23543;SDS011;11950;51.230;4.012;2023-07-31T03:50:47;12.60;;;3.20;;
23543;SDS011;11950;51.230;4.012;2023-07-31T03:53:13;8.60;;;3.22;;
23543;SDS011;11950;51.230;4.012;2023-07-31T03:55:40;9.32;;;3.30;;
23543;SDS011;11950;51.230;4.012;2023-07-31T03:58:06;11.00;;;3.38;;
23543;SDS011;11950;51.230;4.012;2023-07-31T04:00:32;9.32;;;3.75;;
23543;SDS011;11950;51.230;4.012;2023-07-31T04:02:58;10.25;;;3.33;;
23543;SDS011;11950;51.230;4.012;2023-07-31T04:05:25;10.48;;;3.22;;
23543;SDS011;11950;51.230;4.012;2023-07-31T04:07:51;7.88;;;2.95;;
23543;SDS011;11950;51.230;4.012;2023-07-31T04:10:17;5.90;;;2.75;;
23543;SDS011;11950;51.230;4.012;2023-07-31T04:12:43;10.50;;;3.22;;
23543;SDS011;11950;51.230;4.012;2023-07-31T04:15:10;10.73;;;3.20;;
23543;SDS011;11950;51.230;4.012;2023-07-31T04:17:36;9.88;;;3.05;;
23543;SDS011;11950;51.230;4.012;2023-07-31T04:20:02;12.10;;;3.40;;
23543;SDS011;11950;51.230;4.012;2023-07-31T04:22:29;10.18;;;3.00;;
23543;SDS011;11950;51.230;4.012;2023-07-31T04:24:55;10.95;;;3.08;;
23543;SDS011;11950;51.230;4.012;2023-07-31T04:27:21;10.30;;;3.78;;
23543;SDS011;11950;51.230;4.012;2023-07-31T04:29:47;8.48;;;3.67;;
23543;SDS011;11950;51.230;4.012;2023-07-31T04:32:14;6.60;;;3.25;;
23543;SDS011;11950;51.230;4.012;2023-07-31T04:34:42;10.35;;;3.30;;
23543;SDS011;11950;51.230;4.012;2023-07-31T04:37:09;9.23;;;3.17;;
23543;SDS011;11950;51.230;4.012;2023-07-31T04:39:35;7.22;;;3.55;;
23543;SDS011;11950;51.230;4.012;2023-07-31T04:42:01;8.65;;;3.45;;
23543;SDS011;11950;51.230;4.012;2023-07-31T04:44:28;10.68;;;3.78;;
23543;SDS011;11950;51.230;4.012;2023-07-31T04:46:54;9.40;;;3.28;;
23543;SDS011;11950;51.230;4.012;2023-07-31T04:49:20;9.07;;;3.63;;
23543;SDS011;11950;51.230;4.012;2023-07-31T04:51:46;8.07;;;3.30;;
23543;SDS011;11950;51.230;4.012;2023-07-31T04:54:13;7.03;;;3.75;;
23543;SDS011;11950;51.230;4.012;2023-07-31T04:56:40;8.15;;;3.55;;
23543;SDS011;11950;51.230;4.012;2023-07-31T04:59:07;9.13;;;3.75;;
23543;SDS011;11950;51.230;4.012;2023-07-31T05:01:33;9.48;;;3.70;;
23543;SDS011;11950;51.230;4.012;2023-07-31T05:03:59;7.15;;;3.33;;
23543;SDS011;11950;51.230;4.012;2023-07-31T05:06:25;7.22;;;3.22;;
23543;SDS011;11950;51.230;4.012;2023-07-31T05:08:53;12.02;;;2.88;;
23543;SDS011;11950;51.230;4.012;2023-07-31T05:11:19;7.82;;;3.50;;
23543;SDS011;11950;51.230;4.012;2023-07-31T05:13:45;5.95;;;2.65;;
23543;SDS011;11950;51.230;4.012;2023-07-31T05:16:12;8.45;;;2.90;;
23543;SDS011;11950;51.230;4.012;2023-07-31T05:18:38;6.28;;;2.53;;
23543;SDS011;11950;51.230;4.012;2023-07-31T05:21:04;9.18;;;2.90;;
23543;SDS011;11950;51.230;4.012;2023-07-31T05:23:30;7.40;;;3.13;;
23543;SDS011;11950;51.230;4.012;2023-07-31T05:26:05;7.10;;;2.33;;
23543;SDS011;11950;51.230;4.012;2023-07-31T05:28:34;8.02;;;2.65;;
23543;SDS011;11950;51.230;4.012;2023-07-31T05:31:01;6.00;;;2.80;;
23543;SDS011;11950;51.230;4.012;2023-07-31T05:33:28;6.55;;;2.53;;
23543;SDS011;11950;51.230;4.012;2023-07-31T05:35:54;9.85;;;2.55;;
23543;SDS011;11950;51.230;4.012;2023-07-31T05:38:20;5.18;;;2.22;;
23543;SDS011;11950;51.230;4.012;2023-07-31T05:40:47;5.55;;;2.38;;
23543;SDS011;11950;51.230;4.012;2023-07-31T05:43:13;7.38;;;2.47;;
23543;SDS011;11950;51.230;4.012;2023-07-31T05:45:41;6.35;;;2.25;;
23543;SDS011;11950;51.230;4.012;2023-07-31T05:48:08;3.83;;;1.95;;
23543;SDS011;11950;51.230;4.012;2023-07-31T05:50:34;6.25;;;2.42;;
23543;SDS011;11950;51.230;4.012;2023-07-31T05:53:00;9.90;;;2.83;;
23543;SDS011;11950;51.230;4.012;2023-07-31T05:55:27;6.20;;;2.17;;
23543;SDS011;11950;51.230;4.012;2023-07-31T05:57:53;4.82;;;2.30;;
23543;SDS011;11950;51.230;4.012;2023-07-31T06:00:20;5.43;;;2.47;;
23543;SDS011;11950;51.230;4.012;2023-07-31T06:02:47;7.38;;;2.63;;
23543;SDS011;11950;51.230;4.012;2023-07-31T06:05:13;4.85;;;2.70;;
23543;SDS011;11950;51.230;4.012;2023-07-31T06:07:40;4.93;;;2.92;;
23543;SDS011;11950;51.230;4.012;2023-07-31T06:10:06;6.63;;;3.03;;
23543;SDS011;11950;51.230;4.012;2023-07-31T06:12:34;4.78;;;2.80;;
23543;SDS011;11950;51.230;4.012;2023-07-31T06:15:01;4.70;;;2.63;;
23543;SDS011;11950;51.230;4.012;2023-07-31T06:17:28;7.70;;;2.83;;
23543;SDS011;11950;51.230;4.012;2023-07-31T06:19:56;6.13;;;2.83;;
23543;SDS011;11950;51.230;4.012;2023-07-31T06:22:22;7.32;;;3.13;;
23543;SDS011;11950;51.230;4.012;2023-07-31T06:24:48;5.30;;;2.70;;
23543;SDS011;11950;51.230;4.012;2023-07-31T06:27:15;6.50;;;3.13;;
23543;SDS011;11950;51.230;4.012;2023-07-31T06:29:41;5.45;;;3.00;;
23543;SDS011;11950;51.230;4.012;2023-07-31T06:32:08;5.80;;;3.20;;
23543;SDS011;11950;51.230;4.012;2023-07-31T06:34:34;6.50;;;3.15;;
23543;SDS011;11950;51.230;4.012;2023-07-31T06:37:00;8.15;;;3.60;;
23543;SDS011;11950;51.230;4.012;2023-07-31T06:39:26;6.82;;;3.17;;
23543;SDS011;11950;51.230;4.012;2023-07-31T06:41:53;4.18;;;3.22;;
23543;SDS011;11950;51.230;4.012;2023-07-31T06:44:20;7.25;;;3.15;;
23543;SDS011;11950;51.230;4.012;2023-07-31T06:46:46;5.50;;;3.03;;
23543;SDS011;11950;51.230;4.012;2023-07-31T06:49:12;6.85;;;3.13;;
23543;SDS011;11950;51.230;4.012;2023-07-31T06:51:41;5.20;;;3.03;;
23543;SDS011;11950;51.230;4.012;2023-07-31T06:54:10;5.35;;;3.00;;
23543;SDS011;11950;51.230;4.012;2023-07-31T06:56:36;7.88;;;3.45;;
23543;SDS011;11950;51.230;4.012;2023-07-31T06:59:03;6.55;;;3.00;;
23543;SDS011;11950;51.230;4.012;2023-07-31T07:01:30;6.50;;;3.33;;
23543;SDS011;11950;51.230;4.012;2023-07-31T07:03:56;5.65;;;3.25;;
23543;SDS011;11950;51.230;4.012;2023-07-31T07:06:23;6.32;;;3.55;;
23543;SDS011;11950;51.230;4.012;2023-07-31T07:08:49;6.15;;;3.03;;
23543;SDS011;11950;51.230;4.012;2023-07-31T07:11:15;6.93;;;2.90;;
23543;SDS011;11950;51.230;4.012;2023-07-31T07:13:41;4.93;;;3.15;;
23543;SDS011;11950;51.230;4.012;2023-07-31T07:16:08;5.47;;;2.97;;
23543;SDS011;11950;51.230;4.012;2023-07-31T07:18:36;4.35;;;3.28;;
23543;SDS011;11950;51.230;4.012;2023-07-31T07:21:02;6.32;;;2.88;;
23543;SDS011;11950;51.230;4.012;2023-07-31T07:23:28;6.15;;;3.20;;
23543;SDS011;11950;51.230;4.012;2023-07-31T07:25:55;5.35;;;2.85;;
23543;SDS011;11950;51.230;4.012;2023-07-31T07:28:21;8.55;;;3.60;;
23543;SDS011;11950;51.230;4.012;2023-07-31T07:30:51;13.27;;;3.65;;
23543;SDS011;11950;51.230;4.012;2023-07-31T07:35:44;6.75;;;2.33;;
23543;SDS011;11950;51.230;4.012;2023-07-31T07:38:11;9.25;;;3.10;;
23543;SDS011;11950;51.230;4.012;2023-07-31T07:40:40;4.82;;;3.22;;
23543;SDS011;11950;51.230;4.012;2023-07-31T07:43:06;6.13;;;2.95;;
23543;SDS011;11950;51.230;4.012;2023-07-31T07:45:33;8.10;;;3.20;;
23543;SDS011;11950;51.230;4.012;2023-07-31T07:47:59;8.68;;;3.28;;
23543;SDS011;11950;51.230;4.012;2023-07-31T07:50:25;8.25;;;3.20;;
23543;SDS011;11950;51.230;4.012;2023-07-31T07:52:51;6.90;;;2.55;;
23543;SDS011;11950;51.230;4.012;2023-07-31T07:55:18;8.35;;;2.90;;
23543;SDS011;11950;51.230;4.012;2023-07-31T07:57:44;3.40;;;2.40;;
23543;SDS011;11950;51.230;4.012;2023-07-31T08:00:11;6.85;;;2.83;;
23543;SDS011;11950;51.230;4.012;2023-07-31T08:02:42;5.60;;;2.70;;
23543;SDS011;11950;51.230;4.012;2023-07-31T08:05:08;5.85;;;2.78;;
23543;SDS011;11950;51.230;4.012;2023-07-31T08:07:34;8.75;;;2.58;;
23543;SDS011;11950;51.230;4.012;2023-07-31T08:10:01;4.88;;;2.85;;
23543;SDS011;11950;51.230;4.012;2023-07-31T08:12:27;5.70;;;2.67;;
23543;SDS011;11950;51.230;4.012;2023-07-31T08:14:53;2.92;;;2.20;;
23543;SDS011;11950;51.230;4.012;2023-07-31T08:17:20;4.78;;;2.42;;
23543;SDS011;11950;51.230;4.012;2023-07-31T08:19:46;5.68;;;2.53;;
23543;SDS011;11950;51.230;4.012;2023-07-31T08:22:12;4.38;;;1.90;;
23543;SDS011;11950;51.230;4.012;2023-07-31T08:24:40;5.05;;;2.00;;
23543;SDS011;11950;51.230;4.012;2023-07-31T08:27:06;5.57;;;2.10;;
23543;SDS011;11950;51.230;4.012;2023-07-31T08:29:32;4.20;;;2.03;;
23543;SDS011;11950;51.230;4.012;2023-07-31T08:31:59;5.75;;;1.73;;
23543;SDS011;11950;51.230;4.012;2023-07-31T08:34:25;6.50;;;2.20;;
23543;SDS011;11950;51.230;4.012;2023-07-31T08:36:52;5.97;;;2.53;;
23543;SDS011;11950;51.230;4.012;2023-07-31T08:39:18;4.65;;;2.10;;
23543;SDS011;11950;51.230;4.012;2023-07-31T08:41:44;7.05;;;2.40;;
23543;SDS011;11950;51.230;4.012;2023-07-31T08:44:10;5.53;;;2.40;;
23543;SDS011;11950;51.230;4.012;2023-07-31T08:46:39;3.92;;;2.20;;
23543;SDS011;11950;51.230;4.012;2023-07-31T08:49:06;6.22;;;2.20;;
23543;SDS011;11950;51.230;4.012;2023-07-31T08:51:36;6.35;;;2.30;;
23543;SDS011;11950;51.230;4.012;2023-07-31T08:54:02;5.30;;;2.00;;
23543;SDS011;11950;51.230;4.012;2023-07-31T08:56:31;5.13;;;1.73;;
23543;SDS011;11950;51.230;4.012;2023-07-31T08:58:59;2.78;;;1.90;;
23543;SDS011;11950;51.230;4.012;2023-07-31T09:01:28;5.15;;;1.60;;
23543;SDS011;11950;51.230;4.012;2023-07-31T09:03:57;4.28;;;2.10;;
23543;SDS011;11950;51.230;4.012;2023-07-31T09:06:26;6.35;;;1.67;;
23543;SDS011;11950;51.230;4.012;2023-07-31T09:08:55;2.97;;;1.60;;
23543;SDS011;11950;51.230;4.012;2023-07-31T09:11:21;3.22;;;1.80;;
23543;SDS011;11950;51.230;4.012;2023-07-31T09:13:50;3.35;;;1.67;;
23543;SDS011;11950;51.230;4.012;2023-07-31T09:16:17;4.47;;;1.73;;
23543;SDS011;11950;51.230;4.012;2023-07-31T09:18:54;3.30;;;1.40;;
23543;SDS011;11950;51.230;4.012;2023-07-31T09:21:23;2.58;;;1.33;;
23543;SDS011;11950;51.230;4.012;2023-07-31T09:23:49;5.32;;;1.35;;
23543;SDS011;11950;51.230;4.012;2023-07-31T09:26:34;3.25;;;1.67;;
23543;SDS011;11950;51.230;4.012;2023-07-31T09:29:03;2.42;;;1.70;;
23543;SDS011;11950;51.230;4.012;2023-07-31T09:31:39;1.40;;;1.20;;
23543;SDS011;11950;51.230;4.012;2023-07-31T09:34:09;1.90;;;1.20;;
23543;SDS011;11950;51.230;4.012;2023-07-31T09:36:40;3.20;;;1.23;;
23543;SDS011;11950;51.230;4.012;2023-07-31T09:39:15;2.08;;;1.08;;
23543;SDS011;11950;51.230;4.012;2023-07-31T09:41:43;2.78;;;1.05;;
23543;SDS011;11950;51.230;4.012;2023-07-31T09:44:11;3.20;;;1.20;;
23543;SDS011;11950;51.230;4.012;2023-07-31T09:46:37;1.95;;;1.20;;
23543;SDS011;11950;51.230;4.012;2023-07-31T09:49:10;2.05;;;1.10;;
23543;SDS011;11950;51.230;4.012;2023-07-31T09:51:41;1.90;;;1.20;;
23543;SDS011;11950;51.230;4.012;2023-07-31T09:56:47;2.95;;;1.30;;
23543;SDS011;11950;51.230;4.012;2023-07-31T09:59:15;4.22;;;1.27;;
23543;SDS011;11950;51.230;4.012;2023-07-31T10:01:43;3.03;;;1.58;;
23543;SDS011;11950;51.230;4.012;2023-07-31T10:04:12;3.17;;;1.40;;
23543;SDS011;11950;51.230;4.012;2023-07-31T10:06:39;5.70;;;1.60;;
23543;SDS011;11950;51.230;4.012;2023-07-31T10:09:08;6.75;;;1.50;;
23543;SDS011;11950;51.230;4.012;2023-07-31T10:11:55;2.47;;;1.42;;
23543;SDS011;11950;51.230;4.012;2023-07-31T10:14:31;4.60;;;1.52;;
23543;SDS011;11950;51.230;4.012;2023-07-31T10:16:58;2.88;;;1.50;;
23543;SDS011;11950;51.230;4.012;2023-07-31T10:19:25;2.13;;;1.48;;
23543;SDS011;11950;51.230;4.012;2023-07-31T10:21:53;2.40;;;1.50;;
23543;SDS011;11950;51.230;4.012;2023-07-31T10:24:22;2.60;;;1.67;;
23543;SDS011;11950;51.230;4.012;2023-07-31T10:26:50;4.22;;;1.90;;
23543;SDS011;11950;51.230;4.012;2023-07-31T10:29:18;2.58;;;1.90;;
23543;SDS011;11950;51.230;4.012;2023-07-31T10:31:45;3.70;;;1.65;;
23543;SDS011;11950;51.230;4.012;2023-07-31T10:34:13;3.47;;;2.22;;
23543;SDS011;11950;51.230;4.012;2023-07-31T10:36:40;2.95;;;2.25;;
23543;SDS011;11950;51.230;4.012;2023-07-31T10:39:34;3.05;;;2.10;;
23543;SDS011;11950;51.230;4.012;2023-07-31T10:41:59;2.40;;;2.13;;
23543;SDS011;11950;51.230;4.012;2023-07-31T10:44:34;3.47;;;1.85;;
23543;SDS011;11950;51.230;4.012;2023-07-31T10:47:00;5.47;;;2.30;;
23543;SDS011;11950;51.230;4.012;2023-07-31T10:49:27;3.10;;;2.22;;
23543;SDS011;11950;51.230;4.012;2023-07-31T10:51:57;4.07;;;2.42;;
23543;SDS011;11950;51.230;4.012;2023-07-31T10:54:23;5.07;;;2.35;;
23543;SDS011;11950;51.230;4.012;2023-07-31T10:56:50;3.60;;;2.33;;
23543;SDS011;11950;51.230;4.012;2023-07-31T10:59:16;6.38;;;3.58;;
23543;SDS011;11950;51.230;4.012;2023-07-31T11:01:53;3.72;;;2.90;;
23543;SDS011;11950;51.230;4.012;2023-07-31T11:04:24;7.90;;;3.13;;
23543;SDS011;11950;51.230;4.012;2023-07-31T11:07:00;4.68;;;3.17;;
23543;SDS011;11950;51.230;4.012;2023-07-31T11:09:29;4.57;;;3.00;;
23543;SDS011;11950;51.230;4.012;2023-07-31T11:11:57;5.15;;;2.80;;
23543;SDS011;11950;51.230;4.012;2023-07-31T11:14:24;5.35;;;2.88;;
23543;SDS011;11950;51.230;4.012;2023-07-31T11:16:50;6.35;;;2.75;;
23543;SDS011;11950;51.230;4.012;2023-07-31T11:19:23;4.50;;;3.35;;
23543;SDS011;11950;51.230;4.012;2023-07-31T11:21:51;5.30;;;3.13;;
23543;SDS011;11950;51.230;4.012;2023-07-31T11:24:19;5.28;;;3.15;;
23543;SDS011;11950;51.230;4.012;2023-07-31T11:26:52;5.47;;;3.38;;
23543;SDS011;11950;51.230;4.012;2023-07-31T11:29:19;4.72;;;3.17;;
23543;SDS011;11950;51.230;4.012;2023-07-31T11:31:46;4.22;;;3.10;;
23543;SDS011;11950;51.230;4.012;2023-07-31T11:34:13;5.22;;;3.35;;
23543;SDS011;11950;51.230;4.012;2023-07-31T11:36:39;4.05;;;3.10;;
23543;SDS011;11950;51.230;4.012;2023-07-31T11:39:07;5.65;;;3.97;;
23543;SDS011;11950;51.230;4.012;2023-07-31T11:41:34;7.82;;;4.00;;
23543;SDS011;11950;51.230;4.012;2023-07-31T11:44:00;5.90;;;3.28;;
23543;SDS011;11950;51.230;4.012;2023-07-31T11:46:30;8.25;;;3.25;;
23543;SDS011;11950;51.230;4.012;2023-07-31T11:49:00;6.47;;;3.20;;
23543;SDS011;11950;51.230;4.012;2023-07-31T11:51:27;4.47;;;3.40;;
23543;SDS011;11950;51.230;4.012;2023-07-31T11:53:58;6.45;;;3.72;;
23543;SDS011;11950;51.230;4.012;2023-07-31T11:56:27;6.38;;;3.83;;
23543;SDS011;11950;51.230;4.012;2023-07-31T11:58:58;5.78;;;4.20;;
23543;SDS011;11950;51.230;4.012;2023-07-31T12:01:26;6.03;;;3.42;;
23543;SDS011;11950;51.230;4.012;2023-07-31T12:03:55;3.97;;;3.28;;
23543;SDS011;11950;51.230;4.012;2023-07-31T12:06:26;6.22;;;3.50;;
23543;SDS011;11950;51.230;4.012;2023-07-31T12:09:04;6.65;;;3.70;;
23543;SDS011;11950;51.230;4.012;2023-07-31T12:11:31;7.20;;;3.75;;
23543;SDS011;11950;51.230;4.012;2023-07-31T12:14:07;6.13;;;3.40;;
23543;SDS011;11950;51.230;4.012;2023-07-31T12:16:35;4.68;;;3.65;;
23543;SDS011;11950;51.230;4.012;2023-07-31T12:19:01;8.65;;;3.67;;
23543;SDS011;11950;51.230;4.012;2023-07-31T12:21:28;5.47;;;3.60;;
23543;SDS011;11950;51.230;4.012;2023-07-31T12:23:54;5.90;;;3.33;;
23543;SDS011;11950;51.230;4.012;2023-07-31T12:26:21;4.32;;;3.47;;
23543;SDS011;11950;51.230;4.012;2023-07-31T12:28:49;8.27;;;3.50;;
23543;SDS011;11950;51.230;4.012;2023-07-31T12:31:17;10.10;;;3.60;;
23543;SDS011;11950;51.230;4.012;2023-07-31T12:33:45;5.93;;;3.58;;
23543;SDS011;11950;51.230;4.012;2023-07-31T12:36:16;4.50;;;3.13;;
23543;SDS011;11950;51.230;4.012;2023-07-31T12:38:43;8.93;;;3.75;;
23543;SDS011;11950;51.230;4.012;2023-07-31T12:41:11;6.97;;;3.15;;
23543;SDS011;11950;51.230;4.012;2023-07-31T12:43:39;7.75;;;3.78;;
23543;SDS011;11950;51.230;4.012;2023-07-31T12:46:06;6.05;;;3.28;;
23543;SDS011;11950;51.230;4.012;2023-07-31T12:48:33;4.63;;;3.42;;
23543;SDS011;11950;51.230;4.012;2023-07-31T12:51:01;8.85;;;4.15;;
23543;SDS011;11950;51.230;4.012;2023-07-31T12:53:28;9.07;;;4.15;;
23543;SDS011;11950;51.230;4.012;2023-07-31T12:55:55;7.05;;;3.78;;
23543;SDS011;11950;51.230;4.012;2023-07-31T12:58:22;5.35;;;3.92;;
23543;SDS011;11950;51.230;4.012;2023-07-31T13:00:48;8.80;;;4.38;;
23543;SDS011;11950;51.230;4.012;2023-07-31T13:03:14;6.63;;;4.40;;
23543;SDS011;11950;51.230;4.012;2023-07-31T13:05:41;8.82;;;4.35;;
23543;SDS011;11950;51.230;4.012;2023-07-31T13:08:07;9.05;;;4.35;;
23543;SDS011;11950;51.230;4.012;2023-07-31T13:10:33;10.82;;;4.53;;
23543;SDS011;11950;51.230;4.012;2023-07-31T13:13:00;7.78;;;4.82;;
23543;SDS011;11950;51.230;4.012;2023-07-31T13:15:26;5.97;;;4.15;;
23543;SDS011;11950;51.230;4.012;2023-07-31T13:17:52;6.05;;;3.67;;
23543;SDS011;11950;51.230;4.012;2023-07-31T13:20:18;4.80;;;4.05;;
23543;SDS011;11950;51.230;4.012;2023-07-31T13:22:45;4.78;;;3.80;;
23543;SDS011;11950;51.230;4.012;2023-07-31T13:25:11;6.78;;;4.18;;
23543;SDS011;11950;51.230;4.012;2023-07-31T13:27:37;6.93;;;3.85;;
23543;SDS011;11950;51.230;4.012;2023-07-31T13:30:03;4.78;;;3.45;;
23543;SDS011;11950;51.230;4.012;2023-07-31T13:32:30;7.00;;;3.17;;
23543;SDS011;11950;51.230;4.012;2023-07-31T13:34:56;3.85;;;3.00;;
23543;SDS011;11950;51.230;4.012;2023-07-31T13:37:23;3.92;;;2.58;;
23543;SDS011;11950;51.230;4.012;2023-07-31T13:39:49;2.97;;;2.47;;
23543;SDS011;11950;51.230;4.012;2023-07-31T13:42:15;3.00;;;2.42;;
23543;SDS011;11950;51.230;4.012;2023-07-31T13:44:41;2.50;;;1.58;;
23543;SDS011;11950;51.230;4.012;2023-07-31T13:47:08;2.50;;;1.48;;
23543;SDS011;11950;51.230;4.012;2023-07-31T13:49:35;4.45;;;1.40;;
23543;SDS011;11950;51.230;4.012;2023-07-31T13:52:02;7.53;;;1.65;;
23543;SDS011;11950;51.230;4.012;2023-07-31T13:54:29;3.72;;;1.33;;
23543;SDS011;11950;51.230;4.012;2023-07-31T13:56:55;1.95;;;1.00;;
23543;SDS011;11950;51.230;4.012;2023-07-31T13:59:21;2.55;;;1.00;;
23543;SDS011;11950;51.230;4.012;2023-07-31T14:01:47;2.97;;;1.10;;
23543;SDS011;11950;51.230;4.012;2023-07-31T14:04:14;5.45;;;1.10;;
23543;SDS011;11950;51.230;4.012;2023-07-31T14:06:40;1.27;;;0.80;;
23543;SDS011;11950;51.230;4.012;2023-07-31T14:09:06;2.10;;;0.90;;
23543;SDS011;11950;51.230;4.012;2023-07-31T14:11:33;1.67;;;0.73;;
23543;SDS011;11950;51.230;4.012;2023-07-31T14:14:00;1.25;;;0.77;;
23543;SDS011;11950;51.230;4.012;2023-07-31T14:16:27;1.00;;;0.60;;
23543;SDS011;11950;51.230;4.012;2023-07-31T14:18:54;1.55;;;0.68;;
23543;SDS011;11950;51.230;4.012;2023-07-31T14:21:20;0.95;;;0.50;;
23543;SDS011;11950;51.230;4.012;2023-07-31T14:23:46;2.08;;;0.70;;
23543;SDS011;11950;51.230;4.012;2023-07-31T14:26:13;0.95;;;0.52;;
23543;SDS011;11950;51.230;4.012;2023-07-31T14:28:39;1.25;;;0.80;;
23543;SDS011;11950;51.230;4.012;2023-07-31T14:31:05;1.20;;;0.90;;
23543;SDS011;11950;51.230;4.012;2023-07-31T14:33:31;0.88;;;0.88;;
23543;SDS011;11950;51.230;4.012;2023-07-31T14:35:58;3.60;;;0.90;;
23543;SDS011;11950;51.230;4.012;2023-07-31T14:38:24;2.25;;;1.08;;
23543;SDS011;11950;51.230;4.012;2023-07-31T14:40:51;2.03;;;1.30;;
23543;SDS011;11950;51.230;4.012;2023-07-31T14:43:17;1.67;;;1.40;;
23543;SDS011;11950;51.230;4.012;2023-07-31T14:45:44;2.28;;;1.38;;
23543;SDS011;11950;51.230;4.012;2023-07-31T14:48:12;3.50;;;1.70;;
23543;SDS011;11950;51.230;4.012;2023-07-31T14:50:38;5.53;;;1.75;;
23543;SDS011;11950;51.230;4.012;2023-07-31T14:53:05;3.90;;;2.47;;